Thursday, July 24, 2014, 4:00 PM EDT

KIPT, Williamsport-lycoming County

Location: Montoursville, PA, United States Lat: 41.25
Local Time: 4:00 PM EDT (20:00 GMT) Lon: -76.917
Time Zone: US/Eastern Elev: 528 ft

Show me the last for .
Show Decoded

2014-07-24 14:54 METAR KIPT 241854Z 34008KT 10SM BKN060 24/10 A2994 =
2014-07-24 13:54 METAR KIPT 241754Z 36009G16KT 10SM BKN060 24/11 A2996 RMK AO2 SLP140 T02390106
                 10250 20194 58001 =
2014-07-24 12:54 METAR KIPT 241654Z 35007KT 310V020 10SM BKN055 24/09 A2995 RMK AO2 SLP139
                 T02390094 =
2014-07-24 11:54 METAR KIPT 241554Z 32011KT 10SM BKN050 23/11 A2997 RMK AO2 SLP144 T02280106 =
2014-07-24 10:54 METAR KIPT 241454Z VRB04KT 10SM BKN050 23/12 A2996 =
2014-07-24 09:54 METAR KIPT 241354Z VRB06KT 10SM BKN045 21/13 A2996 RMK AO2 SLP141 T02110128 =
2014-07-24 08:54 METAR KIPT 241254Z 31005KT 10SM SCT040 21/13 A2995 =
2014-07-24 07:54 METAR KIPT 241154Z VRB04KT 10SM CLR 19/13 A2995 =
2014-07-24 06:54 METAR KIPT 241054Z 26005KT 10SM CLR 18/13 A2994 RMK AO2 SLP137 T01830133 =
2014-07-24 05:54 METAR KIPT 240954Z AUTO 26003KT 10SM CLR 18/13 A2993 RMK AO2 SLP133 T01830133 =
2014-07-24 04:54 METAR KIPT 240854Z AUTO 26006KT 10SM FEW027 OVC060 19/14 A2992 =
2014-07-24 03:54 METAR KIPT 240754Z AUTO 28005KT 10SM BKN060 19/14 A2991 RMK AO2 SLP123 T01940139
                 =
2014-07-24 02:54 METAR KIPT 240654Z AUTO 29005KT 10SM OVC060 20/14 A2991 RMK AO2 SLP124 T02000139
                 =
2014-07-24 01:54 METAR KIPT 240554Z AUTO 32005KT 10SM OVC055 20/14 A2992 =
2014-07-24 00:54 METAR KIPT 240454Z AUTO 31004KT 10SM OVC050 21/14 A2992 RMK AO2 SLP128 T02060144
                 403280206 =
2014-07-23 23:54 METAR KIPT 240354Z AUTO 31007KT 10SM FEW038 BKN050 22/15 A2991 RMK AO2 SLP123
                 T02170150 =
2014-07-23 22:54 METAR KIPT 240254Z AUTO 32004KT 10SM SCT050 BKN085 22/17 A2989 RMK AO2 SLP119
                 T02220172 50015 =
2014-07-23 21:54 METAR KIPT 240154Z 34004KT 10SM BKN045 OVC065 23/18 A2991 RMK AO2 SLP122
                 T02330178 =
2014-07-23 21:22 METAR KIPT 240122Z 35005KT 10SM FEW023 BKN034 OVC042 24/18 A2991 RMK AO2
                 T02390183 =
2014-07-23 20:54 METAR KIPT 240054Z 33006KT 10SM BKN026 OVC034 24/19 A2989 RMK AO2 SLP117
                 T02440194 =
2014-07-23 20:46 METAR KIPT 240046Z 33005KT 10SM BKN026 OVC049 24/19 A2988 RMK AO2 T02440194 =
2014-07-23 19:54 METAR KIPT 232354Z VRB05KT 10SM SCT026 BKN031 OVC048 25/20 A2985 RMK AO2
                 RAB22E42 SLP104 P0000 60000 T02500200 10328 20250 53017 =
2014-07-23 18:54 METAR KIPT 232254Z 31010KT 10SM FEW080 27/19 A2982 RMK AO2 LTG DSNT SE RAB20E29
                 SLP093 P0000 T02720194 =
2014-07-23 17:54 METAR KIPT 232154Z 32006KT 10SM FEW060 SCT090 29/19 A2981 RMK AO2 LTG DSNT E
                 SLP088 T02890194 =
2014-07-23 16:54 METAR KIPT 232054Z 31005G17KT 10SM SCT055 31/19 A2980 RMK AO2 WSHFT 2027 LTG
                 DSNT E-S SLP085 T03060194 58013 =
2014-07-23 16:47 METAR KIPT 232047Z 32013KT 10SM SCT055 31/19 A2979 RMK AO2 WSHFT 2027 LTG DSNT
                 ALQDS T03110194 =

Support USWX by starting your Amazon purchase here.